Main page
METAR-TAF:

METAR-TAF

Airports :

Sarajevo International Airport

Sarajevo, Bosnia and Herzegovina

latitude: 43-49N, longitude: 018-20E, elevation: 511 m

Current weather observation

The report was made 35 minutes ago, at 13:00 UTC
Wind 4 kt from the West, varying between West/Southwest and Northwest
Temperature 10°C
Humidity 53%
Pressure 1025 hPa
Visibility 10 km or more
no clouds below 1500 m and no cumulonimbus

METAR: LQSA 151300Z 28004KT 250V310 CAVOK 10/01 Q1025 NOSIG

Time: 14:35 (13:35 UTC)

Forecast

The report was made 2 hours and 35 minutes ago, at 11:00 UTC
Forecast valid from 15 at 12 UTC to 16 at 12 UTC
Wind 2 kt from variable directions
Visibility 10 km or more
Few clouds at a height of 4000 ft
Temporary
from 15 at 21 UTC to 16 at 06 UTC
Visibility: 3000 m
mist
Probability 30%
from 16 at 04 UTC to 16 at 07 UTC
Visibility: 0600 m
Broken clouds at a height of 300 ft
freezing fog

TAF: LQSA 151100Z 1512/1612 VRB02KT 9999 FEW040 TX11/1513Z TNM02/1605Z TEMPO 1521/1606 3000 BR PROB30 1604/1607 0600 FZFG BKN003

Weather observations and forecasts of more than 4000 airports (METAR and TAF reports).

The available stations are represented by yellow and red dots on the map.

Hover mouse over dot to see the name of the station.

Then click to see weather observations and forecasts.

To change the map : click on the green buttons with a black cross to zoom in, on the green button with a dash to zoom out, or on the green arrows for adjacent maps.


METAR-TAF: